Time;durP1;ratioP1;P1;durP2;ratioP2;P2;SDS_P1;SDS_P2;PMS_P1;PMS_P2;Temp;Humidity;BMP_temperature;BMP_pressure;BME280_temperature;BME280_humidity;BME280_pressure;Samples;Min_cycle;Max_cycle;Signal;HPM_P1;HPM_P2
2024/01/18 00:00:47;;;;;;;7.45;1.83;;;14.10;99.90;;;;;;5092886;28;20024;-66
2024/01/18 00:03:12;;;;;;;7.13;2.33;;;14.10;99.90;;;;;;5092997;28;20401;-66
2024/01/18 00:05:38;;;;;;;7.88;2.00;;;14.00;99.90;;;;;;5092817;28;20058;-66
2024/01/18 00:08:04;;;;;;;7.32;1.83;;;13.90;99.90;;;;;;5092806;28;20088;-66
2024/01/18 00:10:31;;;;;;;10.13;2.50;;;14.00;99.90;;;;;;5092566;28;20488;-67
2024/01/18 00:12:57;;;;;;;8.00;2.42;;;13.90;99.90;;;;;;5092720;28;20035;-66
2024/01/18 00:15:23;;;;;;;8.52;2.05;;;13.90;99.90;;;;;;5092695;28;20091;-66
2024/01/18 00:17:49;;;;;;;11.50;2.70;;;13.90;99.90;;;;;;5092599;28;20036;-66
2024/01/18 00:20:15;;;;;;;12.50;2.58;;;13.90;99.90;;;;;;5092914;28;20453;-66
2024/01/18 00:22:40;;;;;;;13.38;3.35;;;13.90;99.90;;;;;;5092483;28;20077;-66
2024/01/18 00:25:08;;;;;;;17.25;2.70;;;13.90;99.90;;;;;;5090779;28;20083;-66
2024/01/18 00:27:33;;;;;;;13.90;2.75;;;13.80;99.90;;;;;;5092276;28;20416;-66
2024/01/18 00:29:59;;;;;;;17.35;3.45;;;13.80;99.90;;;;;;5092498;28;20524;-66
2024/01/18 00:32:25;;;;;;;14.70;3.05;;;13.80;99.90;;;;;;5092416;28;20051;-66
2024/01/18 00:34:51;;;;;;;15.25;3.45;;;13.80;99.90;;;;;;5092662;28;20024;-65
2024/01/18 00:37:17;;;;;;;16.70;3.45;;;13.80;99.90;;;;;;5092371;28;20438;-66
2024/01/18 00:39:43;;;;;;;16.05;3.80;;;13.80;99.90;;;;;;5092031;28;20551;-66
2024/01/18 00:42:09;;;;;;;17.55;3.90;;;13.80;99.90;;;;;;5092436;28;20024;-65
2024/01/18 00:44:35;;;;;;;19.33;3.53;;;13.80;99.90;;;;;;5092218;28;20050;-65
2024/01/18 00:47:02;;;;;;;19.25;3.50;;;13.80;99.90;;;;;;5091956;28;20048;-66
2024/01/18 00:49:28;;;;;;;17.60;3.40;;;13.80;99.90;;;;;;5092505;28;20028;-65
2024/01/18 00:51:54;;;;;;;18.30;3.67;;;13.80;99.90;;;;;;5092391;28;20429;-66
2024/01/18 00:54:19;;;;;;;16.35;3.25;;;13.90;99.90;;;;;;5091688;28;20032;-66
2024/01/18 00:56:45;;;;;;;21.42;4.10;;;14.10;99.90;;;;;;5109611;28;20028;-66
2024/01/18 00:59:10;;;;;;;17.23;3.85;;;14.40;99.90;;;;;;5112614;28;20477;-66
2024/01/18 01:01:36;;;;;;;17.17;3.85;;;14.60;99.90;;;;;;5112231;28;20030;-66
2024/01/18 01:04:02;;;;;;;17.65;3.85;;;14.60;99.90;;;;;;5112639;28;20032;-66
2024/01/18 01:06:27;;;;;;;20.55;3.78;;;14.60;99.90;;;;;;5102018;28;20020;-66
2024/01/18 01:08:53;;;;;;;16.50;3.47;;;14.60;99.90;;;;;;5092188;28;20508;-65
2024/01/18 01:11:20;;;;;;;21.83;3.55;;;14.70;99.90;;;;;;5092461;28;20521;-66
2024/01/18 01:13:46;;;;;;;20.38;4.20;;;14.70;99.90;;;;;;5092107;28;20052;-66
2024/01/18 01:16:12;;;;;;;18.75;3.85;;;14.60;99.90;;;;;;5092322;28;20470;-66
2024/01/18 01:18:37;;;;;;;24.50;4.57;;;14.40;99.90;;;;;;5091491;28;20028;-66
2024/01/18 01:21:06;;;;;;;21.20;4.32;;;14.30;99.90;;;;;;5091861;28;20365;-66
2024/01/18 01:23:32;;;;;;;23.33;4.38;;;14.10;99.90;;;;;;5091500;28;20020;-65
2024/01/18 01:25:58;;;;;;;23.73;4.35;;;14.00;99.90;;;;;;5091940;28;20429;-66
2024/01/18 01:28:23;;;;;;;19.52;4.18;;;14.00;99.90;;;;;;5092043;28;20040;-66
2024/01/18 01:30:49;;;;;;;19.35;3.83;;;13.90;99.90;;;;;;5091946;28;20093;-66
2024/01/18 01:33:15;;;;;;;20.30;4.43;;;13.90;99.90;;;;;;5091810;28;20044;-66
2024/01/18 01:35:40;;;;;;;19.52;4.28;;;13.80;99.90;;;;;;5092133;28;20103;-66
2024/01/18 01:38:06;;;;;;;19.40;3.40;;;13.70;99.90;;;;;;5091556;28;20027;-66
2024/01/18 01:40:32;;;;;;;21.80;3.50;;;13.70;99.90;;;;;;5091841;28;20024;-66
2024/01/18 01:42:57;;;;;;;14.70;3.60;;;13.70;99.90;;;;;;5071578;28;20073;-66
2024/01/18 01:45:23;;;;;;;19.58;3.58;;;13.60;99.90;;;;;;5071308;28;20033;-66
2024/01/18 01:47:50;;;;;;;19.42;4.10;;;13.60;99.90;;;;;;5087209;28;20035;-66
2024/01/18 01:50:16;;;;;;;18.20;3.97;;;13.50;99.90;;;;;;5091710;28;20016;-65
2024/01/18 01:52:43;;;;;;;22.20;4.10;;;13.50;99.90;;;;;;5091432;28;20095;-65
2024/01/18 01:55:10;;;;;;;18.88;3.63;;;13.50;99.90;;;;;;5091630;28;20503;-66
2024/01/18 01:57:37;;;;;;;19.13;3.50;;;13.50;99.90;;;;;;5091909;28;20480;-66
2024/01/18 02:00:03;;;;;;;16.35;3.50;;;13.60;99.90;;;;;;5091486;28;20496;-66
2024/01/18 02:02:30;;;;;;;14.32;3.50;;;13.60;99.90;;;;;;5091445;28;20385;-66
2024/01/18 02:04:55;;;;;;;16.27;3.45;;;13.60;99.90;;;;;;5091465;28;20020;-66
2024/01/18 02:07:23;;;;;;;18.50;3.65;;;13.60;99.90;;;;;;5091528;28;20562;-66
2024/01/18 02:09:49;;;;;;;15.85;3.65;;;13.60;99.90;;;;;;5091511;28;20073;-66
2024/01/18 02:12:15;;;;;;;15.30;2.97;;;13.60;99.90;;;;;;5094681;28;20020;-66
2024/01/18 02:14:41;;;;;;;10.80;2.50;;;13.60;99.90;;;;;;5095249;28;20469;-66
2024/01/18 02:17:07;;;;;;;13.07;2.83;;;13.60;99.90;;;;;;5095077;28;20483;-65
2024/01/18 02:19:34;;;;;;;16.83;3.25;;;13.60;99.90;;;;;;5094868;28;20115;-66
2024/01/18 02:22:01;;;;;;;12.80;2.70;;;13.60;99.90;;;;;;5094760;28;20063;-66
2024/01/18 02:24:33;;;;;;;10.35;2.70;;;13.60;99.90;;;;;;5094922;28;20396;-66
2024/01/18 02:26:59;;;;;;;15.00;3.05;;;13.60;99.90;;;;;;5094598;28;20119;-66
2024/01/18 02:29:25;;;;;;;10.82;2.90;;;13.50;99.90;;;;;;5095034;28;20056;-66
2024/01/18 02:31:50;;;;;;;11.23;2.47;;;13.50;99.90;;;;;;5094709;28;20499;-66
2024/01/18 02:34:17;;;;;;;9.38;2.55;;;13.50;99.90;;;;;;5094606;28;20088;-66
2024/01/18 02:36:44;;;;;;;10.77;2.63;;;13.50;99.90;;;;;;5094113;28;20465;-66
2024/01/18 02:39:10;;;;;;;9.02;2.10;;;13.80;99.90;;;;;;5094317;28;20016;-67
2024/01/18 02:41:36;;;;;;;9.25;2.33;;;14.00;99.90;;;;;;5094735;28;20028;-66
2024/01/18 02:44:02;;;;;;;11.35;1.90;;;14.00;99.90;;;;;;5094443;28;20027;-66
2024/01/18 02:46:32;;;;;;;10.00;2.63;;;14.10;99.90;;;;;;5093972;28;20052;-67
2024/01/18 02:48:58;;;;;;;10.38;1.90;;;14.30;99.90;;;;;;5094088;28;20028;-66
2024/01/18 02:51:24;;;;;;;8.35;2.30;;;14.40;99.90;;;;;;5093846;28;20031;-66
2024/01/18 02:53:49;;;;;;;10.65;2.63;;;14.40;99.90;;;;;;5094296;28;20020;-66
2024/01/18 02:56:15;;;;;;;12.55;2.55;;;14.30;99.90;;;;;;5093946;28;20108;-66
2024/01/18 02:58:41;;;;;;;8.90;2.08;;;14.30;99.90;;;;;;5094470;28;20070;-66
2024/01/18 03:01:06;;;;;;;8.50;2.00;;;14.00;99.90;;;;;;5093699;28;20081;-67
2024/01/18 03:03:35;;;;;;;13.50;2.90;;;13.90;99.90;;;;;;5094076;28;20020;-66
2024/01/18 03:06:00;;;;;;;10.57;2.70;;;13.80;99.90;;;;;;5093566;28;20052;-66
2024/01/18 03:08:26;;;;;;;12.00;2.65;;;13.70;99.90;;;;;;5094263;28;20531;-67
2024/01/18 03:10:52;;;;;;;14.40;2.92;;;13.70;99.90;;;;;;5093711;28;20504;-66
2024/01/18 03:13:17;;;;;;;12.73;2.78;;;13.70;99.90;;;;;;5093815;28;20106;-66
2024/01/18 03:15:43;;;;;;;12.52;2.80;;;13.70;99.90;;;;;;5093096;28;20099;-66
2024/01/18 03:18:09;;;;;;;15.48;3.55;;;13.60;99.90;;;;;;5093488;28;20028;-65
2024/01/18 03:20:35;;;;;;;13.70;2.97;;;13.50;99.90;;;;;;5094223;28;20500;-67
2024/01/18 03:23:01;;;;;;;16.08;3.08;;;13.50;99.90;;;;;;5093628;28;20401;-67
2024/01/18 03:25:26;;;;;;;16.52;3.35;;;13.40;99.90;;;;;;5102002;28;20024;-67
2024/01/18 03:27:52;;;;;;;11.02;2.38;;;13.40;99.90;;;;;;5114200;28;20039;-67
2024/01/18 03:30:17;;;;;;;10.68;2.63;;;13.40;99.90;;;;;;5113804;28;20064;-66
2024/01/18 03:32:43;;;;;;;12.45;2.35;;;13.40;99.90;;;;;;5113581;28;20057;-66
2024/01/18 03:35:09;;;;;;;14.85;2.83;;;13.30;99.90;;;;;;5100189;28;20031;-67
2024/01/18 03:37:35;;;;;;;14.80;3.63;;;13.30;99.90;;;;;;5093395;28;20024;-67
2024/01/18 03:40:00;;;;;;;14.38;2.65;;;13.30;99.90;;;;;;5093764;28;20077;-67
2024/01/18 03:42:26;;;;;;;11.57;2.60;;;13.20;99.90;;;;;;5092919;28;20060;-67
2024/01/18 03:44:51;;;;;;;12.52;2.45;;;13.30;99.90;;;;;;5093400;28;20020;-67
2024/01/18 03:47:17;;;;;;;17.42;2.88;;;13.20;99.90;;;;;;5092740;28;20385;-66
2024/01/18 03:49:43;;;;;;;12.43;2.97;;;13.30;99.90;;;;;;5093101;28;20032;-67
2024/01/18 03:52:10;;;;;;;17.02;3.55;;;13.20;99.90;;;;;;5093217;28;20024;-67
2024/01/18 03:54:36;;;;;;;13.15;3.15;;;13.20;99.90;;;;;;5092033;28;20116;-67
2024/01/18 03:57:01;;;;;;;13.77;2.70;;;13.20;99.90;;;;;;5093028;28;20032;-67
2024/01/18 03:59:27;;;;;;;13.65;2.88;;;13.20;99.90;;;;;;5092929;28;20024;-66
2024/01/18 04:01:52;;;;;;;13.00;2.90;;;13.20;99.90;;;;;;5093095;28;20077;-67
2024/01/18 04:04:18;;;;;;;11.82;2.40;;;13.20;99.90;;;;;;5092726;28;20047;-67
2024/01/18 04:06:44;;;;;;;14.05;3.15;;;13.20;99.90;;;;;;5092518;28;20553;-67
2024/01/18 04:09:09;;;;;;;17.58;2.67;;;13.20;99.90;;;;;;5092894;28;20028;-67
2024/01/18 04:11:35;;;;;;;15.18;3.42;;;13.20;99.90;;;;;;5092704;28;20020;-67
2024/01/18 04:14:01;;;;;;;17.23;3.17;;;13.20;99.90;;;;;;5092718;28;20024;-66
2024/01/18 04:16:27;;;;;;;17.33;3.05;;;13.20;99.90;;;;;;5092454;28;20020;-66
2024/01/18 04:18:52;;;;;;;15.57;2.72;;;13.20;99.90;;;;;;5092562;28;20554;-67
2024/01/18 04:21:18;;;;;;;14.35;3.00;;;13.30;99.90;;;;;;5092636;28;20020;-66
2024/01/18 04:23:44;;;;;;;15.00;2.45;;;13.50;99.90;;;;;;5092553;28;20028;-67
2024/01/18 04:26:09;;;;;;;17.38;3.25;;;13.70;99.90;;;;;;5091186;28;20069;-67
2024/01/18 04:28:35;;;;;;;11.73;2.50;;;13.70;99.90;;;;;;5092838;28;20130;-66
2024/01/18 04:31:00;;;;;;;10.98;2.28;;;13.80;99.90;;;;;;5091952;28;20042;-67
2024/01/18 04:33:26;;;;;;;14.50;2.90;;;14.00;99.90;;;;;;5091956;28;20365;-66
2024/01/18 04:35:52;;;;;;;16.42;3.30;;;13.90;99.90;;;;;;5092448;28;20541;-67
2024/01/18 04:38:17;;;;;;;15.20;3.10;;;14.00;99.90;;;;;;5092631;28;20028;-66
2024/01/18 04:40:43;;;;;;;15.40;3.38;;;14.00;99.90;;;;;;5092448;28;20032;-66
2024/01/18 04:43:09;;;;;;;20.90;3.92;;;13.90;99.90;;;;;;5092022;28;20467;-67
2024/01/18 04:45:35;;;;;;;17.10;2.80;;;13.70;99.90;;;;;;5092077;28;20024;-66
2024/01/18 04:48:00;;;;;;;15.82;3.30;;;13.50;99.90;;;;;;5092122;28;20048;-66
2024/01/18 04:50:26;;;;;;;18.35;3.22;;;13.60;99.90;;;;;;5092118;28;20080;-66
2024/01/18 04:52:55;;;;;;;16.95;3.38;;;13.40;99.90;;;;;;5092177;28;20496;-66
2024/01/18 04:55:21;;;;;;;14.45;3.00;;;13.40;99.90;;;;;;5092021;28;20024;-66
2024/01/18 04:57:48;;;;;;;19.77;3.42;;;13.30;99.90;;;;;;5091977;28;20644;-67
2024/01/18 05:00:14;;;;;;;16.98;2.88;;;13.30;99.90;;;;;;5091620;28;20028;-67
2024/01/18 05:02:40;;;;;;;14.70;2.70;;;13.30;99.90;;;;;;5092462;28;20107;-67
2024/01/18 05:05:10;;;;;;;15.93;2.90;;;13.30;99.90;;;;;;5092108;28;20532;-67
2024/01/18 05:07:36;;;;;;;14.18;2.90;;;13.30;99.90;;;;;;5091844;28;20079;-67
2024/01/18 05:10:05;;;;;;;12.23;2.90;;;13.30;99.90;;;;;;5091814;28;20016;-67
2024/01/18 05:12:32;;;;;;;13.50;2.70;;;13.30;99.90;;;;;;5091810;28;20028;-67
2024/01/18 05:14:58;;;;;;;17.98;3.22;;;13.30;99.90;;;;;;5091702;28;20016;-66
2024/01/18 05:17:30;;;;;;;15.98;3.58;;;13.30;99.90;;;;;;5092059;28;20556;-67
2024/01/18 05:19:55;;;;;;;18.83;3.10;;;13.30;99.90;;;;;;5092022;28;20020;-66
2024/01/18 05:22:21;;;;;;;18.65;3.80;;;13.30;99.90;;;;;;5092079;28;20381;-66
2024/01/18 05:24:47;;;;;;;16.50;3.05;;;13.20;99.90;;;;;;5091747;28;20496;-66
2024/01/18 05:27:13;;;;;;;17.30;3.50;;;13.20;99.90;;;;;;5091633;28;20032;-66
2024/01/18 05:29:38;;;;;;;14.32;3.38;;;13.20;99.90;;;;;;5091476;28;20041;-66
2024/01/18 05:32:04;;;;;;;16.35;3.58;;;13.20;99.90;;;;;;5091841;28;20091;-67
2024/01/18 05:34:30;;;;;;;14.15;3.50;;;13.30;99.90;;;;;;5091531;28;20028;-66
2024/01/18 05:36:55;;;;;;;16.60;3.40;;;13.30;99.90;;;;;;5091109;28;20024;-66
2024/01/18 05:39:21;;;;;;;10.95;2.83;;;13.30;99.90;;;;;;5092136;28;20035;-66
2024/01/18 05:41:46;;;;;;;13.05;3.03;;;13.20;99.90;;;;;;5091403;28;20119;-67
2024/01/18 05:44:12;;;;;;;16.40;3.53;;;13.20;99.90;;;;;;5091751;28;20028;-66
2024/01/18 05:46:38;;;;;;;13.02;3.03;;;13.20;99.90;;;;;;5094047;28;20044;-66
2024/01/18 05:49:03;;;;;;;12.73;3.17;;;13.20;99.90;;;;;;5095456;28;20089;-66
2024/01/18 05:51:29;;;;;;;16.38;3.08;;;13.20;99.90;;;;;;5095465;28;20028;-66
2024/01/18 05:53:55;;;;;;;15.32;3.40;;;13.30;99.90;;;;;;5096257;28;20024;-66
2024/01/18 05:56:21;;;;;;;14.40;3.08;;;13.20;99.90;;;;;;5115611;28;20030;-67
2024/01/18 05:58:46;;;;;;;15.07;2.97;;;13.20;99.90;;;;;;5101173;28;20370;-66
2024/01/18 06:01:12;;;;;;;17.38;3.53;;;13.30;99.90;;;;;;5095234;28;20373;-66
2024/01/18 06:03:38;;;;;;;16.55;3.45;;;13.50;99.90;;;;;;5095650;28;20027;-66
2024/01/18 06:06:04;;;;;;;15.90;3.70;;;13.70;99.90;;;;;;5095102;28;20036;-66
2024/01/18 06:08:30;;;;;;;14.35;2.95;;;13.80;99.90;;;;;;5095026;28;20036;-67
2024/01/18 06:10:55;;;;;;;14.63;3.30;;;14.00;99.90;;;;;;5094724;28;20036;-66
2024/01/18 06:13:21;;;;;;;17.10;3.47;;;14.10;99.90;;;;;;5094721;28;20043;-66
2024/01/18 06:15:47;;;;;;;16.58;4.00;;;14.10;99.90;;;;;;5095394;28;20056;-66
2024/01/18 06:18:14;;;;;;;18.20;3.60;;;14.30;99.90;;;;;;5095018;28;20553;-66
2024/01/18 06:20:40;;;;;;;15.40;3.30;;;14.30;99.90;;;;;;5095079;28;20028;-66
2024/01/18 06:23:06;;;;;;;16.15;3.90;;;14.30;99.90;;;;;;5094932;28;20031;-66
2024/01/18 06:25:32;;;;;;;21.05;4.15;;;14.20;99.90;;;;;;5094708;28;20028;-66
2024/01/18 06:27:57;;;;;;;19.98;4.53;;;14.00;99.90;;;;;;5092428;28;20118;-66
2024/01/18 06:30:24;;;;;;;20.15;4.80;;;13.90;99.90;;;;;;5094283;28;20085;-66
2024/01/18 06:32:50;;;;;;;20.60;4.28;;;13.80;99.90;;;;;;5094422;28;20032;-66
2024/01/18 06:35:15;;;;;;;20.05;4.53;;;13.70;99.90;;;;;;5094202;28;20023;-66
2024/01/18 06:37:41;;;;;;;25.38;5.20;;;13.70;99.90;;;;;;5094466;28;20393;-65
2024/01/18 06:40:09;;;;;;;26.83;4.57;;;13.60;99.90;;;;;;5094255;28;20161;-66
2024/01/18 06:42:35;;;;;;;24.63;5.43;;;13.50;99.90;;;;;;5093998;28;20028;-66
2024/01/18 06:45:02;;;;;;;23.73;4.72;;;13.50;99.90;;;;;;5094846;28;20024;-65
2024/01/18 06:47:28;;;;;;;25.60;5.13;;;13.50;99.90;;;;;;5093965;28;20424;-66
2024/01/18 06:49:54;;;;;;;25.77;5.75;;;13.50;99.90;;;;;;5094187;28;20016;-66
2024/01/18 06:52:20;;;;;;;28.33;5.50;;;13.50;99.90;;;;;;5094495;28;20065;-66
2024/01/18 06:54:45;;;;;;;24.30;5.28;;;13.50;99.90;;;;;;5092953;28;20437;-66
2024/01/18 06:57:11;;;;;;;28.00;5.68;;;13.50;99.90;;;;;;5093822;28;20028;-66
2024/01/18 06:59:44;;;;;;;30.35;7.38;;;13.50;99.90;;;;;;5094098;28;20020;-65
2024/01/18 07:02:10;;;;;;;35.53;7.27;;;13.50;99.90;;;;;;5093835;28;20099;-66
2024/01/18 07:04:35;;;;;;;32.40;6.60;;;13.40;99.90;;;;;;5094142;28;20508;-65
2024/01/18 07:07:01;;;;;;;32.17;6.65;;;13.40;99.90;;;;;;5093734;28;20028;-66
2024/01/18 07:09:26;;;;;;;26.20;6.05;;;13.40;99.90;;;;;;5094174;28;20032;-66
2024/01/18 07:11:52;;;;;;;27.38;5.78;;;13.40;99.90;;;;;;5093827;28;20020;-66
2024/01/18 07:14:18;;;;;;;24.67;5.47;;;13.40;99.90;;;;;;5093842;28;20027;-65
2024/01/18 07:16:43;;;;;;;23.75;5.63;;;13.30;99.90;;;;;;5093788;28;20532;-65
2024/01/18 07:19:09;;;;;;;25.42;5.50;;;13.30;99.90;;;;;;5093789;28;20036;-66
2024/01/18 07:21:35;;;;;;;23.77;5.60;;;13.30;99.90;;;;;;5094052;28;20028;-66
2024/01/18 07:24:00;;;;;;;27.33;5.78;;;13.30;99.90;;;;;;5091718;28;20032;-66
2024/01/18 07:26:26;;;;;;;26.85;5.07;;;13.30;99.90;;;;;;5084734;28;20024;-66
2024/01/18 07:28:51;;;;;;;23.02;4.72;;;13.30;99.90;;;;;;5093285;28;20072;-67
2024/01/18 07:31:17;;;;;;;20.95;5.25;;;13.30;99.90;;;;;;5093752;28;20020;-67
2024/01/18 07:33:43;;;;;;;22.20;5.68;;;13.20;99.90;;;;;;5093453;28;20548;-67
2024/01/18 07:36:08;;;;;;;21.95;5.38;;;13.20;99.90;;;;;;5093327;28;20016;-67
2024/01/18 07:38:34;;;;;;;23.90;4.95;;;13.20;99.90;;;;;;5093373;28;20047;-67
2024/01/18 07:41:00;;;;;;;25.55;6.00;;;13.10;99.90;;;;;;5092918;28;20107;-68
2024/01/18 07:43:25;;;;;;;23.67;5.00;;;13.20;99.90;;;;;;5093768;28;20102;-67
2024/01/18 07:45:51;;;;;;;19.88;4.93;;;13.30;99.90;;;;;;5093022;28;20571;-67
2024/01/18 07:48:16;;;;;;;22.30;5.00;;;13.50;99.90;;;;;;5093070;28;20036;-67
2024/01/18 07:50:43;;;;;;;21.05;4.70;;;13.70;99.90;;;;;;5092917;28;20020;-68
2024/01/18 07:53:11;;;;;;;21.40;4.68;;;13.70;99.90;;;;;;5093206;28;20404;-68
2024/01/18 07:55:36;;;;;;;16.67;4.38;;;13.90;99.90;;;;;;5093133;28;20028;-68
2024/01/18 07:58:02;;;;;;;18.65;4.68;;;13.90;99.90;;;;;;5090984;28;20408;-68
2024/01/18 08:00:28;;;;;;;18.50;4.05;;;14.00;99.90;;;;;;5082828;28;20517;-68
2024/01/18 08:02:53;;;;;;;22.48;4.88;;;13.90;99.90;;;;;;5072557;28;20476;-67
2024/01/18 08:05:19;;;;;;;21.60;4.47;;;13.90;99.90;;;;;;5081731;28;20032;-67
2024/01/18 08:07:45;;;;;;;22.80;4.75;;;13.70;99.90;;;;;;5112348;28;20043;-68
2024/01/18 08:10:10;;;;;;;18.58;4.45;;;13.50;99.90;;;;;;5096441;28;20031;-68
2024/01/18 08:12:37;;;;;;;23.10;4.85;;;13.40;99.90;;;;;;5092703;28;20036;-67
2024/01/18 08:15:03;;;;;;;20.88;4.72;;;13.20;99.90;;;;;;5092403;28;20020;-67
2024/01/18 08:17:29;;;;;;;19.80;4.45;;;13.20;99.90;;;;;;5092764;28;20024;-68
2024/01/18 08:19:55;;;;;;;18.02;4.68;;;13.00;99.90;;;;;;5092398;28;20078;-67
2024/01/18 08:22:20;;;;;;;23.13;4.53;;;13.00;99.90;;;;;;5092472;28;20064;-68
2024/01/18 08:24:47;;;;;;;19.67;4.38;;;12.90;99.90;;;;;;5092166;28;20055;-68
2024/01/18 08:27:13;;;;;;;19.95;4.53;;;12.80;99.90;;;;;;5092356;28;20039;-67
2024/01/18 08:29:39;;;;;;;18.88;4.85;;;12.70;99.90;;;;;;5092129;28;20020;-68
2024/01/18 08:32:05;;;;;;;20.80;4.75;;;12.70;99.90;;;;;;5092130;28;20408;-68
2024/01/18 08:34:31;;;;;;;16.00;3.90;;;12.70;99.90;;;;;;5092298;28;20031;-67
2024/01/18 08:36:56;;;;;;;20.83;4.22;;;12.70;99.90;;;;;;5092148;28;20024;-67
2024/01/18 08:39:22;;;;;;;24.63;4.68;;;12.70;99.90;;;;;;5091761;28;20396;-68
2024/01/18 08:41:47;;;;;;;17.65;4.60;;;12.70;99.90;;;;;;5092255;28;20093;-67
2024/01/18 08:44:13;;;;;;;19.73;4.93;;;12.70;99.90;;;;;;5091426;28;20024;-67
2024/01/18 08:46:39;;;;;;;19.27;4.65;;;12.70;99.90;;;;;;5092037;28;20481;-67
2024/01/18 08:49:05;;;;;;;16.90;4.10;;;12.70;99.90;;;;;;5080505;28;20028;-67
2024/01/18 08:51:31;;;;;;;21.63;4.35;;;12.80;99.90;;;;;;5092143;28;20362;-68
2024/01/18 08:53:56;;;;;;;23.98;5.07;;;12.80;99.90;;;;;;5092215;28;20050;-68
2024/01/18 08:56:23;;;;;;;22.52;4.75;;;12.70;99.90;;;;;;5092028;28;20024;-67
2024/01/18 08:58:49;;;;;;;20.15;4.97;;;12.60;99.90;;;;;;5091987;28;20093;-67
2024/01/18 09:01:15;;;;;;;21.55;5.10;;;12.60;99.90;;;;;;5091487;28;20493;-68
2024/01/18 09:03:40;;;;;;;21.38;4.38;;;12.60;99.90;;;;;;5092278;28;20056;-67
2024/01/18 09:06:06;;;;;;;17.10;4.20;;;12.50;99.90;;;;;;5091978;28;20518;-67
2024/01/18 09:08:34;;;;;;;19.15;4.32;;;12.60;99.90;;;;;;5091560;28;20067;-67
2024/01/18 13:41:42;;;;;;;2.13;1.48;;;10.20;99.90;;;;;;5110039;27;20450;-74
2024/01/18 13:44:08;;;;;;;3.05;1.90;;;10.70;99.90;;;;;;5109467;28;20024;-74
2024/01/18 13:46:37;;;;;;;3.65;1.52;;;10.70;99.90;;;;;;5109610;28;20453;-79
2024/01/18 13:49:02;;;;;;;1.45;1.20;;;10.80;99.90;;;;;;5109135;28;20066;-78
2024/01/18 13:51:30;;;;;;;1.55;1.45;;;10.80;99.90;;;;;;5109542;28;20031;-73
2024/01/18 13:53:56;;;;;;;2.20;2.00;;;10.70;99.90;;;;;;5109470;28;20028;-72
2024/01/18 13:56:23;;;;;;;1.80;1.70;;;10.70;99.90;;;;;;5109507;28;20020;-73
2024/01/18 13:58:49;;;;;;;1.65;1.55;;;10.60;99.90;;;;;;5109532;28;20024;-73
2024/01/18 14:01:15;;;;;;;1.75;0.80;;;10.60;99.90;;;;;;5109688;28;20043;-74
2024/01/18 14:03:44;;;;;;;1.48;1.38;;;10.50;99.90;;;;;;5109019;28;20460;-74
2024/01/18 14:06:16;;;;;;;1.17;0.77;;;10.50;99.90;;;;;;5109374;28;20035;-74
2024/01/18 14:08:45;;;;;;;1.40;0.80;;;10.50;99.90;;;;;;5109257;28;20450;-74
2024/01/18 14:11:12;;;;;;;1.02;0.88;;;10.50;99.90;;;;;;5109727;28;20179;-74
2024/01/18 14:13:38;;;;;;;1.75;0.77;;;10.40;99.90;;;;;;5109117;28;20505;-74
2024/01/18 14:16:04;;;;;;;0.80;0.73;;;10.30;99.90;;;;;;5109369;28;20031;-74
2024/01/18 14:18:30;;;;;;;0.82;0.70;;;10.30;99.90;;;;;;5108947;28;20595;-74
2024/01/18 14:20:57;;;;;;;0.70;0.70;;;10.10;99.90;;;;;;5109019;28;20032;-73
2024/01/18 14:23:26;;;;;;;0.82;0.80;;;10.00;99.90;;;;;;5108948;28;20035;-73
2024/01/18 14:25:51;;;;;;;0.70;0.70;;;9.80;99.90;;;;;;5108984;28;20393;-72
2024/01/18 14:28:18;;;;;;;0.80;0.80;;;9.60;99.90;;;;;;5109330;28;20020;-74
2024/01/18 14:30:44;;;;;;;0.93;0.80;;;9.50;99.90;;;;;;5108603;28;20089;-73
2024/01/18 14:33:13;;;;;;;1.40;0.80;;;9.40;99.90;;;;;;5108560;28;20035;-73
2024/01/18 14:35:41;;;;;;;0.93;0.80;;;9.30;99.90;;;;;;5108547;28;20038;-73
2024/01/18 14:38:07;;;;;;;0.80;0.80;;;9.30;99.90;;;;;;5108967;28;20024;-74
2024/01/18 14:40:33;;;;;;;0.88;0.80;;;9.30;99.90;;;;;;5107288;28;20054;-73
2024/01/18 14:42:58;;;;;;;1.00;0.90;;;9.30;99.90;;;;;;5094770;28;20024;-75
2024/01/18 14:45:25;;;;;;;1.17;0.80;;;9.20;99.90;;;;;;5094167;28;20032;-73
2024/01/18 14:47:51;;;;;;;1.13;0.88;;;9.20;99.90;;;;;;5094630;28;20024;-73
2024/01/18 14:50:16;;;;;;;1.00;0.90;;;9.30;99.90;;;;;;5094821;28;20040;-73
2024/01/18 14:52:42;;;;;;;0.80;0.80;;;9.20;99.90;;;;;;5095264;28;20024;-73
2024/01/18 14:55:10;;;;;;;2.10;0.90;;;9.20;99.90;;;;;;5094985;28;20081;-73
2024/01/18 14:57:37;;;;;;;0.95;0.90;;;9.10;99.90;;;;;;5095095;28;20019;-73
2024/01/18 15:00:11;;;;;;;1.00;0.80;;;9.10;99.90;;;;;;5095059;28;20028;-73
2024/01/18 15:02:39;;;;;;;1.30;0.77;;;9.00;99.90;;;;;;5094073;28;20038;-73
2024/01/18 15:05:05;;;;;;;0.80;0.80;;;9.10;99.90;;;;;;5094872;28;20103;-72
2024/01/18 15:07:30;;;;;;;0.70;0.70;;;9.00;99.90;;;;;;5094681;28;20099;-73
2024/01/18 15:09:56;;;;;;;0.70;0.70;;;8.90;99.90;;;;;;5094370;28;20035;-72
2024/01/18 15:12:21;;;;;;;0.88;0.80;;;9.00;99.90;;;;;;5093117;28;20028;-72
2024/01/18 15:14:47;;;;;;;0.70;0.70;;;8.80;99.90;;;;;;5080632;28;20454;-72
2024/01/18 15:17:13;;;;;;;0.70;0.70;;;8.80;99.90;;;;;;5073866;28;20081;-72
2024/01/18 15:19:38;;;;;;;0.70;0.70;;;8.80;99.90;;;;;;5074172;28;20036;-73
2024/01/18 15:22:04;;;;;;;0.80;0.80;;;8.80;99.90;;;;;;5074467;28;20417;-72
2024/01/18 15:24:30;;;;;;;0.80;0.80;;;8.70;99.90;;;;;;5074086;28;20032;-72
2024/01/18 15:26:55;;;;;;;0.98;0.90;;;8.70;99.90;;;;;;5074275;28;20020;-72
2024/01/18 15:29:21;;;;;;;0.80;0.80;;;8.60;99.90;;;;;;5087461;28;20546;-72
2024/01/18 15:31:47;;;;;;;0.90;0.90;;;8.70;99.90;;;;;;5093943;28;20497;-72
2024/01/18 15:34:13;;;;;;;1.10;1.00;;;9.00;99.90;;;;;;5081379;28;20039;-71
2024/01/18 15:36:39;;;;;;;1.35;1.00;;;9.20;99.90;;;;;;5080293;28;20020;-72
2024/01/18 15:39:05;;;;;;;1.05;1.00;;;9.40;99.90;;;;;;5093912;28;20051;-72
2024/01/18 15:41:32;;;;;;;1.25;1.10;;;9.50;99.90;;;;;;5093880;28;20509;-72
2024/01/18 15:43:57;;;;;;;1.00;0.90;;;9.40;99.90;;;;;;5093743;28;20489;-71
2024/01/18 15:46:25;;;;;;;0.90;0.90;;;9.40;99.90;;;;;;5093536;28;20060;-71
2024/01/18 15:48:53;;;;;;;1.30;1.20;;;9.50;99.90;;;;;;5094286;28;20024;-71
2024/01/18 15:51:22;;;;;;;1.10;0.98;;;9.30;99.90;;;;;;5093835;28;20040;-71
2024/01/18 15:53:49;;;;;;;1.20;1.10;;;9.40;99.90;;;;;;5092584;28;20024;-71
2024/01/18 15:56:15;;;;;;;1.30;1.20;;;9.20;99.90;;;;;;5093735;28;20039;-71
2024/01/18 15:58:40;;;;;;;1.50;1.25;;;9.00;99.90;;;;;;5093653;28;20359;-71
2024/01/18 16:01:06;;;;;;;1.50;1.40;;;8.80;99.90;;;;;;5093589;28;20016;-71
2024/01/18 16:03:32;;;;;;;2.50;1.35;;;8.70;99.90;;;;;;5094331;28;20024;-71
2024/01/18 16:05:57;;;;;;;1.30;1.20;;;8.60;99.90;;;;;;5094842;28;20114;-71
2024/01/18 16:08:23;;;;;;;3.50;2.20;;;8.50;99.90;;;;;;5094431;28;20145;-72
2024/01/18 16:10:48;;;;;;;4.18;2.63;;;8.50;99.90;;;;;;5093820;28;20042;-71
2024/01/18 16:13:14;;;;;;;1.88;1.52;;;8.40;99.90;;;;;;5093629;28;20028;-72
2024/01/18 16:15:40;;;;;;;1.60;1.50;;;8.30;99.90;;;;;;5092660;28;20028;-71
2024/01/18 16:18:05;;;;;;;1.63;1.52;;;8.30;99.90;;;;;;5093629;28;20381;-72
2024/01/18 16:20:31;;;;;;;1.70;1.60;;;8.20;99.90;;;;;;5093183;28;20085;-71
2024/01/18 16:22:58;;;;;;;1.55;1.40;;;8.20;99.90;;;;;;5093020;28;20032;-71
2024/01/18 16:25:23;;;;;;;1.90;1.50;;;8.10;99.90;;;;;;5093209;28;20036;-71
2024/01/18 16:27:49;;;;;;;1.90;1.70;;;8.10;99.90;;;;;;5092807;28;20031;-71
2024/01/18 16:30:15;;;;;;;2.05;1.70;;;8.10;99.90;;;;;;5092624;28;20086;-71
2024/01/18 16:32:40;;;;;;;1.77;1.67;;;8.10;99.90;;;;;;5092929;28;20024;-71
2024/01/18 16:35:06;;;;;;;3.25;1.98;;;8.10;99.90;;;;;;5092880;28;20032;-71
2024/01/18 16:37:32;;;;;;;2.17;1.70;;;7.90;99.90;;;;;;5093125;28;20485;-71
2024/01/18 16:39:57;;;;;;;1.80;1.65;;;8.00;99.90;;;;;;5090932;28;20131;-71
2024/01/18 16:42:23;;;;;;;1.85;1.52;;;7.90;99.90;;;;;;5092710;28;20047;-71
2024/01/18 16:44:49;;;;;;;2.00;1.80;;;8.00;99.90;;;;;;5092717;28;20068;-71
2024/01/18 16:47:14;;;;;;;1.80;1.52;;;8.00;99.90;;;;;;5092786;28;20038;-71
2024/01/18 16:49:40;;;;;;;2.00;1.80;;;8.00;99.90;;;;;;5092593;28;20028;-71
2024/01/18 16:52:06;;;;;;;2.70;2.33;;;7.90;99.90;;;;;;5091365;28;20024;-71
2024/01/18 16:54:31;;;;;;;1.88;1.77;;;7.90;99.90;;;;;;5092818;28;20036;-71
2024/01/18 16:56:58;;;;;;;2.22;2.03;;;7.80;99.90;;;;;;5092631;28;20027;-71
2024/01/18 16:59:23;;;;;;;2.80;2.42;;;7.80;99.90;;;;;;5090948;28;20397;-71
2024/01/18 17:01:49;;;;;;;3.88;2.63;;;7.80;99.90;;;;;;5092632;28;20024;-71
2024/01/18 17:04:15;;;;;;;2.67;2.40;;;7.80;99.90;;;;;;5092350;28;20038;-71
2024/01/18 17:06:40;;;;;;;2.60;2.40;;;7.80;99.90;;;;;;5092449;28;20028;-71